Time;durP1;ratioP1;P1;durP2;ratioP2;P2;SDS_P1;SDS_P2;PMS_P1;PMS_P2;Temp;Humidity;BMP_temperature;BMP_pressure;BME280_temperature;BME280_humidity;BME280_pressure;Samples;Min_cycle;Max_cycle;Signal;HPM_P1;HPM_P2
2021/08/23 00:00:09;;;;;;;0.10;0.10;;;14.70;99.90;;;;;;5052581;28;20025;-71
2021/08/23 00:02:36;;;;;;;0.40;0.40;;;14.70;99.90;;;;;;5034733;28;20022;-71
2021/08/23 00:05:02;;;;;;;0.30;0.30;;;14.50;99.90;;;;;;5052600;28;20021;-71
2021/08/23 00:07:28;;;;;;;0.63;0.60;;;14.40;99.90;;;;;;5052464;28;20029;-71
2021/08/23 00:09:54;;;;;;;0.30;0.30;;;14.40;99.90;;;;;;5034926;28;20021;-71
2021/08/23 00:12:21;;;;;;;0.10;0.10;;;14.40;99.90;;;;;;5052360;28;20017;-72
2021/08/23 00:14:47;;;;;;;0.10;0.10;;;14.50;99.90;;;;;;5052674;28;20112;-72
2021/08/23 00:17:12;;;;;;;0.98;0.90;;;14.60;99.90;;;;;;5052226;28;20496;-71
2021/08/23 00:19:38;;;;;;;0.30;0.30;;;14.50;99.90;;;;;;5052330;28;20052;-72
2021/08/23 00:22:20;;;;;;;3.03;1.08;;;14.50;99.90;;;;;;5052249;28;20389;-71
2021/08/23 00:24:50;;;;;;;0.35;0.35;;;14.50;99.90;;;;;;5052275;28;20029;-72
2021/08/23 00:27:17;;;;;;;0.57;0.55;;;14.40;99.90;;;;;;5034614;28;20055;-72
2021/08/23 00:29:44;;;;;;;0.90;0.30;;;14.40;99.90;;;;;;5052134;28;20090;-72
2021/08/23 00:32:10;;;;;;;0.10;0.10;;;14.50;99.90;;;;;;5052073;28;20409;-71
2021/08/23 00:34:35;;;;;;;1.55;0.43;;;14.50;99.90;;;;;;5052044;28;20021;-72
2021/08/23 00:37:02;;;;;;;0.30;0.30;;;14.60;99.90;;;;;;5034302;28;20021;-71
2021/08/23 00:39:27;;;;;;;0.20;0.20;;;14.50;99.90;;;;;;5051955;28;20021;-72
2021/08/23 00:41:53;;;;;;;0.30;0.30;;;14.60;99.90;;;;;;5051902;28;20388;-71
2021/08/23 00:44:19;;;;;;;0.20;0.20;;;14.60;99.90;;;;;;5051979;28;20021;-71
2021/08/23 00:46:45;;;;;;;0.10;0.10;;;14.70;99.90;;;;;;5051867;28;20028;-72
2021/08/23 00:49:10;;;;;;;0.20;0.20;;;14.70;99.90;;;;;;5051971;28;20027;-71
2021/08/23 00:51:36;;;;;;;1.33;0.47;;;14.60;99.90;;;;;;5052067;28;20013;-71
2021/08/23 00:54:02;;;;;;;0.28;0.28;;;14.60;99.90;;;;;;5051939;28;20380;-71
2021/08/23 00:56:28;;;;;;;0.43;0.43;;;14.50;99.90;;;;;;5050738;28;20053;-71
2021/08/23 00:58:54;;;;;;;0.20;0.20;;;14.50;99.90;;;;;;5051810;28;20032;-72
2021/08/23 01:01:35;;;;;;;0.30;0.30;;;14.70;99.90;;;;;;5051700;28;20476;-72
2021/08/23 01:04:05;;;;;;;0.17;0.17;;;14.70;99.90;;;;;;5034166;28;20475;-72
2021/08/23 01:06:32;;;;;;;2.03;0.47;;;14.70;99.90;;;;;;5051648;28;20404;-72
2021/08/23 01:09:05;;;;;;;0.10;0.10;;;14.70;99.90;;;;;;5051848;28;20018;-72
2021/08/23 01:11:34;;;;;;;0.20;0.20;;;14.40;99.90;;;;;;5051588;28;20032;-71
2021/08/23 01:14:01;;;;;;;0.10;0.10;;;14.40;99.90;;;;;;5051781;28;20025;-71
2021/08/23 01:16:27;;;;;;;0.22;0.22;;;14.40;99.90;;;;;;5017273;28;20055;-71
2021/08/23 01:18:53;;;;;;;0.47;0.40;;;14.40;99.90;;;;;;5033790;28;20040;-72
2021/08/23 01:21:23;;;;;;;0.10;0.10;;;14.40;99.90;;;;;;5051600;28;20033;-71
2021/08/23 01:23:50;;;;;;;0.20;0.20;;;14.40;99.90;;;;;;5033626;28;20025;-71
2021/08/23 01:26:30;;;;;;;0.10;0.10;;;14.40;99.90;;;;;;5051540;28;20029;-71
2021/08/23 01:29:17;;;;;;;0.20;0.20;;;14.40;99.90;;;;;;5051562;28;20059;-71
2021/08/23 01:31:55;;;;;;;0.10;0.10;;;14.50;99.90;;;;;;5051372;28;20384;-71
2021/08/23 01:34:24;;;;;;;0.28;0.28;;;14.70;99.90;;;;;;5033744;28;20043;-72
2021/08/23 01:36:50;;;;;;;0.45;0.20;;;14.70;99.90;;;;;;5033587;28;20029;-71
2021/08/23 01:39:18;;;;;;;0.10;0.10;;;14.60;99.90;;;;;;5051429;28;20047;-72
2021/08/23 01:41:43;;;;;;;0.10;0.10;;;14.70;99.90;;;;;;5051647;28;20041;-71
2021/08/23 01:44:09;;;;;;;0.10;0.10;;;14.80;99.90;;;;;;5051409;28;20050;-71
2021/08/23 01:46:35;;;;;;;0.10;0.10;;;14.70;99.90;;;;;;5051363;28;20151;-71
2021/08/23 01:49:05;;;;;;;0.20;0.20;;;14.70;99.90;;;;;;5051323;28;20036;-71
2021/08/23 01:51:31;;;;;;;0.20;0.20;;;14.60;99.90;;;;;;5051409;28;20052;-72
2021/08/23 01:53:58;;;;;;;0.10;0.10;;;14.60;99.90;;;;;;5051285;28;20417;-72
2021/08/23 01:56:25;;;;;;;0.10;0.10;;;14.50;99.90;;;;;;5051209;28;20029;-71
2021/08/23 01:58:50;;;;;;;1.35;0.40;;;14.50;99.90;;;;;;5051204;28;20021;-71
2021/08/23 02:01:16;;;;;;;1.08;1.00;;;14.30;99.90;;;;;;5033428;28;20508;-71
2021/08/23 02:03:42;;;;;;;0.32;0.32;;;14.30;99.90;;;;;;5051139;28;20033;-71
2021/08/23 02:06:08;;;;;;;0.88;0.88;;;14.20;99.90;;;;;;5051214;28;20018;-71
2021/08/23 02:08:34;;;;;;;0.57;0.57;;;14.10;99.90;;;;;;5052658;28;20151;-71
2021/08/23 02:11:00;;;;;;;0.10;0.10;;;14.10;99.90;;;;;;5054805;28;20100;-72
2021/08/23 02:13:25;;;;;;;0.30;0.30;;;14.20;99.90;;;;;;5054681;28;20036;-72
2021/08/23 02:15:51;;;;;;;0.20;0.20;;;14.20;99.90;;;;;;5054641;28;20021;-72
2021/08/23 02:18:17;;;;;;;0.30;0.30;;;14.30;99.90;;;;;;5036544;28;20044;-72
2021/08/23 02:20:42;;;;;;;0.17;0.17;;;14.20;99.90;;;;;;5055156;28;20036;-71
2021/08/23 02:23:08;;;;;;;0.38;0.38;;;14.10;99.90;;;;;;5054511;28;20044;-71
2021/08/23 02:25:34;;;;;;;0.52;0.52;;;14.00;99.90;;;;;;5054396;28;20017;-72
2021/08/23 02:28:00;;;;;;;0.10;0.10;;;14.00;99.90;;;;;;5054441;28;20024;-71
2021/08/23 02:30:25;;;;;;;0.25;0.25;;;14.00;99.90;;;;;;5054537;28;20409;-72
2021/08/23 02:32:51;;;;;;;0.20;0.20;;;14.00;99.90;;;;;;5054303;28;20055;-72
2021/08/23 02:35:18;;;;;;;0.10;0.10;;;14.10;99.90;;;;;;5036674;28;20064;-72
2021/08/23 02:37:44;;;;;;;0.93;0.93;;;14.30;99.90;;;;;;5054189;28;20025;-72
2021/08/23 02:40:10;;;;;;;0.20;0.20;;;14.40;99.90;;;;;;5036273;28;20036;-72
2021/08/23 02:42:36;;;;;;;0.20;0.20;;;14.30;99.90;;;;;;5054108;28;20032;-72
2021/08/23 02:45:03;;;;;;;0.30;0.30;;;14.30;99.90;;;;;;5036223;28;20029;-72
2021/08/23 02:47:29;;;;;;;0.50;0.50;;;14.30;99.90;;;;;;5036195;28;20047;-72
2021/08/23 02:49:55;;;;;;;1.02;0.30;;;14.10;99.90;;;;;;5036341;28;20025;-72
2021/08/23 02:52:20;;;;;;;0.10;0.10;;;14.10;99.90;;;;;;5054106;28;20021;-72
2021/08/23 02:54:46;;;;;;;0.10;0.10;;;14.10;99.90;;;;;;5053756;28;20025;-72
2021/08/23 02:57:12;;;;;;;0.65;0.65;;;14.20;99.90;;;;;;5054015;28;20029;-72
2021/08/23 02:59:38;;;;;;;0.20;0.20;;;14.30;99.90;;;;;;5035876;28;20028;-72
2021/08/23 03:02:03;;;;;;;0.20;0.20;;;14.30;99.90;;;;;;5053901;28;20106;-72
2021/08/23 03:04:29;;;;;;;0.13;0.13;;;14.30;99.90;;;;;;5035799;28;20159;-71
2021/08/23 03:06:55;;;;;;;0.40;0.40;;;14.30;99.90;;;;;;5035989;28;20021;-72
2021/08/23 03:09:20;;;;;;;1.10;1.00;;;14.20;99.90;;;;;;5053567;28;20021;-72
2021/08/23 03:11:46;;;;;;;0.30;0.30;;;14.20;99.90;;;;;;5053670;28;20476;-72
2021/08/23 03:14:12;;;;;;;0.73;0.65;;;14.30;99.90;;;;;;5053471;28;20025;-72
2021/08/23 03:16:38;;;;;;;1.55;1.15;;;14.30;99.90;;;;;;5035628;28;20049;-72
2021/08/23 03:19:03;;;;;;;0.75;0.75;;;14.30;99.90;;;;;;5035135;28;20029;-72
2021/08/23 03:21:29;;;;;;;0.20;0.20;;;14.20;99.90;;;;;;5052855;28;20032;-72
2021/08/23 03:23:55;;;;;;;0.10;0.10;;;14.20;99.90;;;;;;5053289;28;20469;-72
2021/08/23 03:26:21;;;;;;;0.30;0.30;;;14.20;99.90;;;;;;5053363;28;20424;-72
2021/08/23 03:28:47;;;;;;;0.80;0.60;;;14.10;99.90;;;;;;5053217;28;20082;-72
2021/08/23 03:31:12;;;;;;;0.10;0.10;;;14.00;99.90;;;;;;5053271;28;20055;-71
2021/08/23 03:33:41;;;;;;;0.13;0.13;;;14.00;99.90;;;;;;5035189;28;20390;-71
2021/08/23 03:36:06;;;;;;;0.20;0.20;;;14.00;99.90;;;;;;5035256;28;20048;-71
2021/08/23 03:38:32;;;;;;;1.05;0.98;;;14.00;99.90;;;;;;5052963;28;20036;-71
2021/08/23 03:40:58;;;;;;;0.10;0.10;;;14.00;99.90;;;;;;5053064;28;20120;-72
2021/08/23 03:43:24;;;;;;;0.10;0.10;;;14.10;99.90;;;;;;5053002;28;20035;-72
2021/08/23 03:45:50;;;;;;;0.10;0.10;;;14.10;99.90;;;;;;5035141;28;20159;-71
2021/08/23 03:48:15;;;;;;;0.20;0.20;;;14.10;99.90;;;;;;5052857;28;20441;-71
2021/08/23 03:50:41;;;;;;;0.20;0.20;;;14.20;99.90;;;;;;5034970;28;20108;-71
2021/08/23 03:53:07;;;;;;;0.20;0.20;;;14.20;99.90;;;;;;5052874;28;20035;-72
2021/08/23 03:55:32;;;;;;;0.10;0.10;;;14.20;99.90;;;;;;5052629;28;20055;-72
2021/08/23 03:57:58;;;;;;;0.63;0.63;;;14.20;99.90;;;;;;5052729;28;20025;-72
2021/08/23 04:00:24;;;;;;;0.38;0.38;;;14.10;99.90;;;;;;5052527;28;20029;-71
2021/08/23 04:02:50;;;;;;;0.50;0.50;;;14.00;99.90;;;;;;5052683;28;20392;-71
2021/08/23 04:05:15;;;;;;;0.30;0.30;;;14.00;99.90;;;;;;5052467;28;20071;-71
2021/08/23 04:07:42;;;;;;;0.57;0.57;;;14.10;99.90;;;;;;5052501;28;20051;-71
2021/08/23 04:10:08;;;;;;;0.57;0.55;;;14.10;99.90;;;;;;5052800;28;20472;-72
2021/08/23 04:12:34;;;;;;;0.47;0.47;;;14.00;99.90;;;;;;5052503;28;20056;-71
2021/08/23 04:15:00;;;;;;;0.10;0.10;;;14.00;99.90;;;;;;5052348;28;20025;-72
2021/08/23 04:17:26;;;;;;;0.75;0.35;;;14.10;99.90;;;;;;5052303;28;20071;-71
2021/08/23 04:19:52;;;;;;;0.10;0.10;;;14.00;99.90;;;;;;5052225;28;20065;-71
2021/08/23 04:22:18;;;;;;;0.10;0.10;;;14.10;99.90;;;;;;5052267;28;20021;-71
2021/08/23 04:24:43;;;;;;;0.10;0.10;;;14.20;99.90;;;;;;5052116;28;20032;-72
2021/08/23 04:27:09;;;;;;;0.32;0.30;;;14.40;99.90;;;;;;5034348;28;20039;-72
2021/08/23 04:29:35;;;;;;;0.10;0.10;;;14.50;99.90;;;;;;5052058;28;20024;-71
2021/08/23 04:32:00;;;;;;;0.20;0.20;;;14.50;99.90;;;;;;5051998;28;20049;-71
2021/08/23 04:34:26;;;;;;;0.10;0.10;;;14.50;99.90;;;;;;5034097;28;20500;-71
2021/08/23 04:36:52;;;;;;;0.20;0.20;;;14.50;99.90;;;;;;5052346;28;20086;-71
2021/08/23 04:39:18;;;;;;;0.30;0.30;;;14.40;99.90;;;;;;5051938;28;20025;-72
2021/08/23 04:41:43;;;;;;;0.32;0.32;;;14.30;99.90;;;;;;5052046;28;20023;-71
2021/08/23 04:44:10;;;;;;;0.20;0.20;;;14.10;99.90;;;;;;5051952;28;20060;-72
2021/08/23 04:46:37;;;;;;;0.20;0.20;;;14.10;99.90;;;;;;5034288;28;20438;-71
2021/08/23 04:49:04;;;;;;;0.40;0.40;;;14.00;99.90;;;;;;5017455;28;20021;-71
2021/08/23 04:51:29;;;;;;;0.10;0.10;;;14.00;99.90;;;;;;5034138;28;20021;-72
2021/08/23 04:53:55;;;;;;;0.25;0.25;;;14.10;99.90;;;;;;5051788;28;20082;-71
2021/08/23 04:56:21;;;;;;;0.82;0.82;;;14.10;99.90;;;;;;5051861;28;20033;-71
2021/08/23 04:58:47;;;;;;;0.50;0.35;;;14.00;99.90;;;;;;5017425;28;20029;-71
2021/08/23 05:01:13;;;;;;;0.20;0.20;;;13.90;99.90;;;;;;5051775;28;20032;-71
2021/08/23 05:03:39;;;;;;;0.47;0.47;;;14.00;99.90;;;;;;5051858;28;20025;-71
2021/08/23 05:06:05;;;;;;;18.40;3.92;;;13.90;99.90;;;;;;5017161;28;20025;-72
2021/08/23 05:08:30;;;;;;;0.35;0.35;;;13.90;99.90;;;;;;5051537;28;20530;-71
2021/08/23 05:10:56;;;;;;;0.10;0.10;;;13.70;99.90;;;;;;5050672;28;20378;-72
2021/08/23 05:13:22;;;;;;;0.17;0.17;;;13.60;99.90;;;;;;5033653;28;20033;-72
2021/08/23 05:15:48;;;;;;;0.60;0.57;;;13.70;99.90;;;;;;5051185;28;20029;-71
2021/08/23 05:18:14;;;;;;;0.10;0.10;;;13.80;99.90;;;;;;5051238;28;20563;-71
2021/08/23 05:20:40;;;;;;;0.10;0.10;;;13.90;99.90;;;;;;5050985;28;20025;-72
2021/08/23 05:23:06;;;;;;;0.20;0.20;;;14.10;99.90;;;;;;5017103;28;20036;-72
2021/08/23 05:25:33;;;;;;;0.20;0.20;;;14.20;99.90;;;;;;5050974;28;20025;-71
2021/08/23 05:28:05;;;;;;;0.30;0.30;;;14.30;99.90;;;;;;5051271;28;20467;-71
2021/08/23 05:30:31;;;;;;;;;;;14.40;99.90;;;;;;5051721;28;20033;-72
2021/08/23 05:32:57;;;;;;;0.32;0.25;;;14.30;99.90;;;;;;5051260;28;20023;-71
2021/08/23 05:35:23;;;;;;;0.10;0.10;;;14.30;99.90;;;;;;5050827;28;20025;-72
2021/08/23 05:37:49;;;;;;;0.52;0.50;;;14.20;99.90;;;;;;5051278;28;20103;-71
2021/08/23 05:40:17;;;;;;;0.13;0.13;;;14.40;99.90;;;;;;5050907;28;20124;-76
2021/08/23 05:42:43;;;;;;;0.60;0.60;;;14.50;99.90;;;;;;5051542;28;20021;-72
2021/08/23 05:45:09;;;;;;;0.22;0.22;;;14.60;99.90;;;;;;5054671;28;20035;-72
2021/08/23 05:47:37;;;;;;;2.00;0.95;;;14.70;99.90;;;;;;5054739;28;20017;-72
2021/08/23 05:50:04;;;;;;;0.40;0.40;;;14.70;99.90;;;;;;5054762;28;20033;-72
2021/08/23 05:52:30;;;;;;;0.40;0.40;;;14.70;99.90;;;;;;5054774;28;20054;-72
2021/08/23 05:54:56;;;;;;;2.53;0.50;;;14.70;99.90;;;;;;5054674;28;20021;-72
2021/08/23 05:57:24;;;;;;;0.40;0.40;;;14.70;99.90;;;;;;5054711;28;20086;-72
2021/08/23 05:59:50;;;;;;;0.52;0.52;;;14.70;99.90;;;;;;5036659;28;20517;-72
2021/08/23 06:02:16;;;;;;;0.77;0.77;;;14.80;99.90;;;;;;5054776;28;20054;-72
2021/08/23 06:04:41;;;;;;;0.20;0.20;;;14.90;99.90;;;;;;5054440;28;20021;-72
2021/08/23 06:07:07;;;;;;;2.35;1.35;;;14.90;99.90;;;;;;5054280;28;20029;-72
2021/08/23 06:09:34;;;;;;;0.10;0.10;;;15.00;99.90;;;;;;5036665;28;20481;-72
2021/08/23 06:12:00;;;;;;;0.10;0.10;;;15.10;99.90;;;;;;5054134;28;20017;-72
2021/08/23 06:14:25;;;;;;;0.10;0.10;;;15.10;99.90;;;;;;5036565;28;20144;-72
2021/08/23 06:16:51;;;;;;;0.20;0.20;;;15.20;99.90;;;;;;5054155;28;20331;-72
2021/08/23 06:19:17;;;;;;;0.35;0.28;;;15.40;99.90;;;;;;5054351;28;20134;-72
2021/08/23 06:21:43;;;;;;;0.30;0.30;;;15.30;99.90;;;;;;5054121;28;20033;-72
2021/08/23 06:24:09;;;;;;;1.23;0.80;;;15.20;99.90;;;;;;5054045;28;20063;-72
2021/08/23 06:26:35;;;;;;;0.10;0.10;;;15.10;99.90;;;;;;5053959;28;20036;-72
2021/08/23 06:29:00;;;;;;;0.10;0.10;;;15.00;99.90;;;;;;5053756;28;20045;-72
2021/08/23 06:31:26;;;;;;;0.10;0.10;;;15.00;99.90;;;;;;5053775;28;20033;-72
2021/08/23 06:33:52;;;;;;;0.10;0.10;;;15.00;99.90;;;;;;5036113;28;20029;-72
2021/08/23 06:36:18;;;;;;;0.20;0.20;;;15.10;99.90;;;;;;5053959;28;20136;-72
2021/08/23 06:38:44;;;;;;;2.65;0.40;;;15.20;99.90;;;;;;5053752;28;20024;-72
2021/08/23 06:41:21;;;;;;;0.10;0.10;;;15.50;99.90;;;;;;5053855;28;20534;-72
2021/08/23 06:43:48;;;;;;;0.28;0.28;;;15.80;99.90;;;;;;5052628;28;20051;-72
2021/08/23 06:46:14;;;;;;;0.10;0.10;;;15.90;99.90;;;;;;5053878;28;20017;-72
2021/08/23 06:48:40;;;;;;;0.52;0.52;;;16.00;99.90;;;;;;5035847;28;20396;-72
2021/08/23 06:51:06;;;;;;;0.10;0.10;;;16.00;99.90;;;;;;5052324;28;20021;-72
2021/08/23 06:53:31;;;;;;;1.30;0.40;;;16.00;99.90;;;;;;5053522;28;20392;-72
2021/08/23 06:55:57;;;;;;;0.43;0.20;;;15.90;99.90;;;;;;5052184;28;20492;-72
2021/08/23 06:58:23;;;;;;;6.07;0.80;;;15.90;99.90;;;;;;5053502;28;20268;-72
2021/08/23 07:00:49;;;;;;;0.10;0.10;;;15.60;99.90;;;;;;5052084;28;20029;-72
2021/08/23 07:03:14;;;;;;;5.38;0.75;;;15.60;99.90;;;;;;5052185;28;20025;-72
2021/08/23 07:05:40;;;;;;;1.25;0.60;;;15.60;99.90;;;;;;5053294;28;20044;-72
2021/08/23 07:08:06;;;;;;;1.17;0.73;;;15.60;99.90;;;;;;5052067;28;20506;-72
2021/08/23 07:10:33;;;;;;;0.32;0.32;;;15.60;99.90;;;;;;5051747;28;20530;-72
2021/08/23 07:12:59;;;;;;;9.02;1.23;;;15.70;99.90;;;;;;5053267;28;20021;-71
2021/08/23 07:15:25;;;;;;;4.43;1.35;;;15.70;99.90;;;;;;5051799;28;20427;-72
2021/08/23 07:17:51;;;;;;;0.43;0.43;;;15.70;99.90;;;;;;5053006;28;20037;-72
2021/08/23 07:20:17;;;;;;;0.10;0.10;;;15.70;99.90;;;;;;5052972;28;20396;-72
2021/08/23 07:22:42;;;;;;;9.73;6.90;;;15.90;99.90;;;;;;5051652;28;20028;-72
2021/08/23 07:25:09;;;;;;;0.52;0.52;;;16.10;99.90;;;;;;5052920;28;20433;-72
2021/08/23 07:27:35;;;;;;;0.57;0.57;;;16.10;99.90;;;;;;5052983;28;20025;-72
2021/08/23 07:30:03;;;;;;;0.10;0.10;;;16.20;99.90;;;;;;5051771;28;20078;-72
2021/08/23 07:32:28;;;;;;;2.97;1.17;;;16.30;99.90;;;;;;5052731;28;20028;-72
2021/08/23 07:34:54;;;;;;;0.20;0.20;;;16.40;99.90;;;;;;5052561;28;20495;-76
2021/08/23 07:37:20;;;;;;;0.52;0.43;;;16.40;99.90;;;;;;5044099;28;20484;-72
2021/08/23 07:39:48;;;;;;;0.40;0.40;;;16.40;99.90;;;;;;5052402;28;20021;-72
2021/08/23 07:42:18;;;;;;;0.10;0.10;;;16.60;99.90;;;;;;5018223;28;20028;-72
2021/08/23 07:44:44;;;;;;;0.10;0.10;;;16.60;99.90;;;;;;5018200;28;20074;-72
2021/08/23 07:47:09;;;;;;;0.17;0.17;;;16.90;99.90;;;;;;5052400;28;20481;-72
2021/08/23 07:49:36;;;;;;;0.20;0.20;;;17.00;99.90;;;;;;5018171;28;20043;-73
2021/08/23 07:52:02;;;;;;;0.10;0.10;;;17.50;99.90;;;;;;5052342;28;20028;-72
2021/08/23 07:54:28;;;;;;;0.10;0.10;;;17.50;99.90;;;;;;5052422;28;20021;-73
2021/08/23 07:56:54;;;;;;;3.30;0.57;;;17.80;99.90;;;;;;5052261;28;20024;-72
2021/08/23 07:59:19;;;;;;;4.95;0.98;;;17.70;99.90;;;;;;5034515;28;20025;-73
2021/08/23 08:01:45;;;;;;;0.20;0.20;;;17.60;99.90;;;;;;5051868;28;20032;-73
2021/08/23 08:04:12;;;;;;;0.10;0.10;;;17.60;99.90;;;;;;5034404;28;20021;-73
2021/08/23 08:06:38;;;;;;;1.45;0.30;;;17.60;99.90;;;;;;5051879;28;20028;-73
2021/08/23 08:09:04;;;;;;;0.30;0.30;;;17.60;99.90;;;;;;5052092;28;20025;-73
2021/08/23 08:11:29;;;;;;;0.10;0.10;;;17.70;99.90;;;;;;5052166;28;20025;-72
2021/08/23 08:13:55;;;;;;;0.20;0.17;;;17.80;99.90;;;;;;5051913;28;20392;-73
2021/08/23 08:16:21;;;;;;;20.38;0.75;;;18.00;99.90;;;;;;5034117;28;20408;-73
2021/08/23 08:18:47;;;;;;;0.10;0.10;;;18.10;99.90;;;;;;5051664;28;20036;-73
2021/08/23 08:21:13;;;;;;;0.88;0.63;;;17.90;99.90;;;;;;5052132;28;20040;-72
2021/08/23 08:23:38;;;;;;;0.10;0.10;;;17.70;99.90;;;;;;5051885;28;20070;-72
2021/08/23 08:26:04;;;;;;;0.10;0.10;;;17.40;99.90;;;;;;5034117;28;20063;-73
2021/08/23 08:28:32;;;;;;;0.10;0.10;;;17.30;99.90;;;;;;5050436;28;20128;-73
2021/08/23 08:30:58;;;;;;;0.10;0.10;;;17.20;99.90;;;;;;5034027;28;20033;-72
2021/08/23 08:33:24;;;;;;;0.50;0.50;;;17.00;99.90;;;;;;5050339;28;20598;-72
2021/08/23 08:35:57;;;;;;;1.90;0.32;;;17.00;99.90;;;;;;5051808;28;20037;-72
2021/08/23 08:38:23;;;;;;;0.10;0.10;;;16.80;99.90;;;;;;5051503;28;20075;-73
2021/08/23 08:40:49;;;;;;;0.40;0.40;;;16.80;99.90;;;;;;5033624;28;20024;-72
2021/08/23 08:43:15;;;;;;;1.05;1.02;;;17.10;99.90;;;;;;5050895;28;20056;-73
2021/08/23 08:45:43;;;;;;;0.32;0.32;;;17.10;99.90;;;;;;5051503;28;20045;-72
2021/08/23 08:48:08;;;;;;;2.63;0.30;;;16.80;99.90;;;;;;5051436;28;20025;-73
2021/08/23 08:50:34;;;;;;;0.30;0.30;;;16.90;99.90;;;;;;5051368;28;20102;-73
2021/08/23 08:53:05;;;;;;;5.63;2.13;;;16.90;99.90;;;;;;5051346;28;20056;-73
2021/08/23 08:55:37;;;;;;;0.80;0.20;;;16.60;99.90;;;;;;5051338;28;20516;-73
2021/08/23 08:58:05;;;;;;;0.30;0.30;;;16.30;99.90;;;;;;5051218;28;20100;-73
2021/08/23 09:00:33;;;;;;;0.20;0.20;;;16.50;99.90;;;;;;5051251;28;20025;-73
2021/08/23 09:03:00;;;;;;;0.82;0.60;;;16.40;99.90;;;;;;5051283;28;20039;-73
2021/08/23 09:05:36;;;;;;;0.10;0.10;;;16.30;99.90;;;;;;5033353;28;20021;-73
2021/08/23 09:08:02;;;;;;;0.10;0.10;;;16.20;99.90;;;;;;5033426;28;20116;-72
2021/08/23 09:10:28;;;;;;;0.25;0.25;;;16.20;99.90;;;;;;5033282;28;20025;-73
2021/08/23 09:13:08;;;;;;;0.15;0.15;;;16.10;99.90;;;;;;5051245;28;20039;-73
2021/08/23 09:15:36;;;;;;;0.17;0.17;;;16.10;99.90;;;;;;5033278;28;20142;-72
2021/08/23 09:18:06;;;;;;;1.42;1.00;;;16.20;99.90;;;;;;5052079;28;20029;-73
2021/08/23 09:20:33;;;;;;;0.15;0.15;;;16.40;99.90;;;;;;5055280;28;20032;-73
2021/08/23 09:23:13;;;;;;;0.05;0.05;;;16.60;99.90;;;;;;5037440;28;20143;-73
2021/08/23 09:25:41;;;;;;;0.10;0.10;;;16.80;99.90;;;;;;5055217;28;20024;-73
2021/08/23 09:28:08;;;;;;;0.10;0.10;;;16.80;99.90;;;;;;5055225;28;20495;-73
2021/08/23 09:30:34;;;;;;;0.10;0.10;;;16.80;99.90;;;;;;5055650;28;20435;-73
2021/08/23 09:33:02;;;;;;;1.20;1.10;;;16.70;99.90;;;;;;5055018;28;20025;-73
2021/08/23 09:35:36;;;;;;;0.32;0.32;;;16.80;99.90;;;;;;5054878;28;20115;-73
2021/08/23 09:38:10;;;;;;;0.10;0.10;;;16.90;99.90;;;;;;5037377;28;20423;-73
2021/08/23 09:40:36;;;;;;;0.13;0.13;;;17.00;99.90;;;;;;5036793;28;20021;-73
2021/08/23 09:43:13;;;;;;;0.10;0.10;;;17.20;99.90;;;;;;5054977;28;20021;-73
2021/08/23 09:45:44;;;;;;;0.28;0.28;;;17.20;99.90;;;;;;5020186;28;20089;-73
2021/08/23 09:48:10;;;;;;;0.10;0.10;;;17.40;99.90;;;;;;5054960;28;20095;-73
2021/08/23 09:50:43;;;;;;;0.50;0.50;;;17.50;99.90;;;;;;5054588;28;20043;-73
2021/08/23 09:53:15;;;;;;;1.02;0.70;;;17.40;99.90;;;;;;5054825;28;20032;-73
2021/08/23 09:55:43;;;;;;;0.10;0.10;;;17.00;99.90;;;;;;5036535;28;20025;-73
2021/08/23 09:58:10;;;;;;;0.65;0.65;;;17.10;99.90;;;;;;5054737;28;20060;-73
2021/08/23 10:00:38;;;;;;;0.10;0.10;;;17.20;99.90;;;;;;5036578;28;20033;-73
2021/08/23 10:03:13;;;;;;;0.10;0.10;;;17.10;99.90;;;;;;5054584;28;20476;-73
2021/08/23 10:05:48;;;;;;;0.10;0.10;;;17.20;99.90;;;;;;5054344;28;20484;-73
2021/08/23 10:08:16;;;;;;;0.10;0.10;;;17.40;99.90;;;;;;5054511;28;20017;-73
2021/08/23 10:10:43;;;;;;;2.10;0.43;;;17.50;99.90;;;;;;5054735;28;20048;-73
2021/08/23 10:13:09;;;;;;;0.10;0.10;;;17.60;99.90;;;;;;5054333;28;20033;-73
2021/08/23 10:15:37;;;;;;;0.10;0.10;;;17.70;99.90;;;;;;5054359;28;20115;-73
2021/08/23 10:18:04;;;;;;;0.65;0.17;;;18.00;99.90;;;;;;5036233;28;20119;-73
2021/08/23 10:20:30;;;;;;;0.10;0.10;;;18.80;99.90;;;;;;5054309;28;20025;-73
2021/08/23 10:22:56;;;;;;;0.00;0.00;;;19.60;99.90;;;;;;5054320;28;20480;-73
2021/08/23 10:25:23;;;;;;;0.00;0.00;;;20.10;99.90;;;;;;5054087;28;20021;-71
2021/08/23 10:27:48;;;;;;;0.20;0.20;;;20.70;99.90;;;;;;5036286;28;20025;-71
2021/08/23 10:30:25;;;;;;;0.10;0.10;;;20.70;99.90;;;;;;5019241;28;20028;-72
2021/08/23 10:32:52;;;;;;;0.10;0.10;;;20.30;99.90;;;;;;5054062;28;20021;-72
2021/08/23 10:35:25;;;;;;;0.17;0.17;;;19.90;99.90;;;;;;5036148;28;20438;-72
2021/08/23 10:37:53;;;;;;;0.38;0.28;;;19.60;99.90;;;;;;5053957;28;20028;-72
2021/08/23 10:40:25;;;;;;;0.25;0.25;;;19.20;99.90;;;;;;5053750;28;20025;-72
2021/08/23 10:42:51;;;;;;;1.17;0.32;;;18.90;99.90;;;;;;5053862;28;20565;-72
2021/08/23 10:45:19;;;;;;;0.10;0.10;;;18.60;99.90;;;;;;5035761;28;20021;-72
2021/08/23 10:47:46;;;;;;;0.20;0.20;;;18.50;99.90;;;;;;5053768;28;20381;-72
2021/08/23 10:50:38;;;;;;;0.10;0.10;;;18.40;99.90;;;;;;5035732;28;20029;-72
2021/08/23 10:53:10;;;;;;;;;;;18.40;99.90;;;;;;5048630;28;20037;-72
2021/08/23 10:55:37;;;;;;;0.10;0.10;;;18.30;99.90;;;;;;5053695;28;19931;-72
2021/08/23 10:58:08;;;;;;;0.05;0.05;;;18.50;99.90;;;;;;5053649;28;20256;-72
2021/08/23 11:00:36;;;;;;;5.72;1.35;;;18.60;99.90;;;;;;5053370;28;20017;-72
2021/08/23 11:03:02;;;;;;;2.08;1.00;;;18.50;99.90;;;;;;5036050;28;20025;-72
2021/08/23 11:05:28;;;;;;;0.40;0.40;;;17.70;99.90;;;;;;5053321;28;20021;-72
2021/08/23 11:08:09;;;;;;;2.95;0.75;;;17.00;99.90;;;;;;5053516;28;20104;-72
2021/08/23 11:10:39;;;;;;;0.63;0.40;;;16.40;99.90;;;;;;5052958;28;20017;-72
2021/08/23 11:13:18;;;;;;;0.10;0.10;;;16.10;99.90;;;;;;5035575;28;20057;-73
2021/08/23 11:15:45;;;;;;;0.65;0.47;;;16.00;99.90;;;;;;5053208;28;20075;-73
2021/08/23 11:18:11;;;;;;;0.15;0.15;;;16.10;99.90;;;;;;5035301;28;20033;-73
2021/08/23 11:20:46;;;;;;;0.10;0.10;;;16.00;99.90;;;;;;5052926;28;20021;-73
2021/08/23 11:23:17;;;;;;;0.10;0.10;;;16.20;99.90;;;;;;5053119;28;20396;-73
2021/08/23 11:25:51;;;;;;;0.90;0.45;;;16.40;99.90;;;;;;5052933;28;20023;-73
2021/08/23 11:28:20;;;;;;;0.43;0.43;;;16.40;99.90;;;;;;5052996;28;20041;-73
2021/08/23 11:30:50;;;;;;;0.40;0.40;;;16.40;99.90;;;;;;5052830;28;20036;-73
2021/08/23 11:33:31;;;;;;;3.38;1.92;;;16.50;99.90;;;;;;5053017;28;20036;-73
2021/08/23 11:36:02;;;;;;;0.10;0.10;;;16.40;99.90;;;;;;5052746;28;20021;-72
2021/08/23 11:38:34;;;;;;;0.40;0.20;;;16.60;99.90;;;;;;5052846;28;20025;-73
2021/08/23 11:41:03;;;;;;;0.20;0.20;;;16.70;99.90;;;;;;5051598;28;20052;-73
2021/08/23 11:43:30;;;;;;;0.68;0.68;;;16.90;99.90;;;;;;5051418;28;20028;-72
2021/08/23 11:45:58;;;;;;;0.10;0.10;;;16.90;99.90;;;;;;5052587;28;20500;-73
2021/08/23 11:48:25;;;;;;;0.08;0.08;;;16.90;99.90;;;;;;5052746;28;20055;-73
2021/08/23 11:50:51;;;;;;;3.03;1.35;;;17.20;99.90;;;;;;5034688;28;20040;-73
2021/08/23 11:53:18;;;;;;;0.00;0.00;;;17.10;99.90;;;;;;5052386;28;20032;-72
2021/08/23 11:55:46;;;;;;;1.10;1.00;;;17.00;99.90;;;;;;5051156;28;20370;-73
2021/08/23 11:58:19;;;;;;;0.10;0.10;;;17.00;99.90;;;;;;5052730;28;20017;-72
2021/08/23 12:00:58;;;;;;;0.10;0.10;;;17.10;99.90;;;;;;5034312;28;20025;-72
2021/08/23 12:03:23;;;;;;;0.10;0.10;;;17.50;99.90;;;;;;5066412;22;20496;-75
2021/08/23 12:05:49;;;;;;;0.10;0.10;;;17.30;99.90;;;;;;5051207;28;20024;-75
2021/08/23 12:08:24;;;;;;;1.25;0.98;;;17.70;99.90;;;;;;5033088;28;20025;-75
2021/08/23 12:10:52;;;;;;;0.00;0.00;;;17.70;99.90;;;;;;5039991;28;20055;-75
2021/08/23 12:13:20;;;;;;;3.00;1.15;;;18.00;99.90;;;;;;5044695;28;20070;-75
2021/08/23 12:15:55;;;;;;;1.00;0.85;;;17.90;99.90;;;;;;5040743;28;20029;-74
2021/08/23 12:18:36;;;;;;;0.10;0.10;;;17.80;99.90;;;;;;5042819;28;20044;-74
2021/08/23 12:21:04;;;;;;;0.10;0.10;;;17.80;99.90;;;;;;5044141;28;20068;-75
2021/08/23 12:23:50;;;;;;;0.47;0.47;;;18.00;99.90;;;;;;5040309;28;20029;-75
2021/08/23 12:26:23;;;;;;;0.73;0.73;;;18.00;99.90;;;;;;5048154;28;20025;-75
2021/08/23 12:28:50;;;;;;;0.38;0.38;;;17.90;99.90;;;;;;5043464;28;20021;-75
2021/08/23 12:31:17;;;;;;;0.10;0.10;;;18.00;99.90;;;;;;5050502;28;20025;-75
2021/08/23 12:33:43;;;;;;;0.20;0.20;;;18.00;99.90;;;;;;5045014;28;20032;-75
2021/08/23 12:36:09;;;;;;;2.72;0.45;;;18.10;99.90;;;;;;5045578;28;20033;-75
2021/08/23 12:38:34;;;;;;;0.20;0.20;;;18.40;99.90;;;;;;5046982;28;20090;-75
2021/08/23 12:41:00;;;;;;;0.32;0.17;;;18.60;99.90;;;;;;5050680;28;20543;-75
2021/08/23 12:43:26;;;;;;;0.40;0.40;;;19.00;99.90;;;;;;5050870;28;20017;-75
2021/08/23 12:45:52;;;;;;;0.70;0.70;;;19.00;99.90;;;;;;5043063;28;20021;-75
2021/08/23 12:48:18;;;;;;;0.13;0.10;;;19.00;99.90;;;;;;5050227;28;20021;-75